sensor_id;sensor_type;location;lat;lon;timestamp;P1;durP1;ratioP1;P2;durP2;ratioP2
52041;SDS011;38052;45.944;13.624;2023-05-07T00:00:49;4.97;;;4.30;;
52041;SDS011;38052;45.944;13.624;2023-05-07T00:03:16;4.47;;;3.90;;
52041;SDS011;38052;45.944;13.624;2023-05-07T00:05:43;4.13;;;3.60;;
52041;SDS011;38052;45.944;13.624;2023-05-07T00:08:09;6.38;;;4.28;;
52041;SDS011;38052;45.944;13.624;2023-05-07T00:10:35;5.53;;;3.70;;
52041;SDS011;38052;45.944;13.624;2023-05-07T00:13:02;7.75;;;4.35;;
52041;SDS011;38052;45.944;13.624;2023-05-07T00:15:28;10.30;;;4.05;;
52041;SDS011;38052;45.944;13.624;2023-05-07T00:17:55;4.82;;;4.13;;
52041;SDS011;38052;45.944;13.624;2023-05-07T00:20:22;7.55;;;4.53;;
52041;SDS011;38052;45.944;13.624;2023-05-07T00:22:49;5.03;;;4.35;;
52041;SDS011;38052;45.944;13.624;2023-05-07T00:25:15;6.20;;;4.50;;
52041;SDS011;38052;45.944;13.624;2023-05-07T00:27:41;8.02;;;4.97;;
52041;SDS011;38052;45.944;13.624;2023-05-07T00:30:07;6.32;;;5.47;;
52041;SDS011;38052;45.944;13.624;2023-05-07T00:32:34;6.75;;;5.70;;
52041;SDS011;38052;45.944;13.624;2023-05-07T00:35:00;10.02;;;5.28;;
52041;SDS011;38052;45.944;13.624;2023-05-07T00:37:27;6.95;;;5.90;;
52041;SDS011;38052;45.944;13.624;2023-05-07T00:39:54;9.48;;;5.72;;
52041;SDS011;38052;45.944;13.624;2023-05-07T00:42:20;6.60;;;5.95;;
52041;SDS011;38052;45.944;13.624;2023-05-07T00:44:47;8.02;;;6.05;;
52041;SDS011;38052;45.944;13.624;2023-05-07T00:47:13;8.75;;;5.90;;
52041;SDS011;38052;45.944;13.624;2023-05-07T00:49:44;6.55;;;5.55;;
52041;SDS011;38052;45.944;13.624;2023-05-07T00:52:11;5.15;;;4.60;;
52041;SDS011;38052;45.944;13.624;2023-05-07T00:54:40;7.75;;;5.00;;
52041;SDS011;38052;45.944;13.624;2023-05-07T00:57:06;10.13;;;5.60;;
52041;SDS011;38052;45.944;13.624;2023-05-07T00:59:33;8.98;;;5.05;;
52041;SDS011;38052;45.944;13.624;2023-05-07T01:02:00;7.10;;;4.75;;
52041;SDS011;38052;45.944;13.624;2023-05-07T01:04:26;6.60;;;5.03;;
52041;SDS011;38052;45.944;13.624;2023-05-07T01:06:54;6.68;;;5.22;;
52041;SDS011;38052;45.944;13.624;2023-05-07T01:09:21;9.27;;;5.35;;
52041;SDS011;38052;45.944;13.624;2023-05-07T01:11:48;5.88;;;4.63;;
52041;SDS011;38052;45.944;13.624;2023-05-07T01:14:15;8.60;;;4.80;;
52041;SDS011;38052;45.944;13.624;2023-05-07T01:16:42;7.00;;;4.57;;
52041;SDS011;38052;45.944;13.624;2023-05-07T01:19:09;7.45;;;4.95;;
52041;SDS011;38052;45.944;13.624;2023-05-07T01:21:41;7.45;;;4.45;;
52041;SDS011;38052;45.944;13.624;2023-05-07T01:24:11;6.45;;;4.43;;
52041;SDS011;38052;45.944;13.624;2023-05-07T01:26:39;5.88;;;4.50;;
52041;SDS011;38052;45.944;13.624;2023-05-07T01:29:05;6.57;;;5.20;;
52041;SDS011;38052;45.944;13.624;2023-05-07T01:31:32;6.15;;;5.30;;
52041;SDS011;38052;45.944;13.624;2023-05-07T01:33:59;6.25;;;5.13;;
52041;SDS011;38052;45.944;13.624;2023-05-07T01:36:27;5.88;;;4.88;;
52041;SDS011;38052;45.944;13.624;2023-05-07T01:38:55;10.02;;;5.55;;
52041;SDS011;38052;45.944;13.624;2023-05-07T01:41:22;6.70;;;4.72;;
52041;SDS011;38052;45.944;13.624;2023-05-07T01:43:50;8.35;;;4.05;;
52041;SDS011;38052;45.944;13.624;2023-05-07T01:46:17;8.45;;;4.72;;
52041;SDS011;38052;45.944;13.624;2023-05-07T01:48:44;6.38;;;5.00;;
52041;SDS011;38052;45.944;13.624;2023-05-07T01:51:11;5.55;;;4.72;;
52041;SDS011;38052;45.944;13.624;2023-05-07T01:53:38;5.40;;;4.68;;
52041;SDS011;38052;45.944;13.624;2023-05-07T01:56:05;5.75;;;4.10;;
52041;SDS011;38052;45.944;13.624;2023-05-07T01:58:32;5.47;;;4.63;;
52041;SDS011;38052;45.944;13.624;2023-05-07T02:00:58;5.15;;;4.10;;
52041;SDS011;38052;45.944;13.624;2023-05-07T02:03:24;6.93;;;4.57;;
52041;SDS011;38052;45.944;13.624;2023-05-07T02:05:50;7.75;;;4.47;;
52041;SDS011;38052;45.944;13.624;2023-05-07T02:08:17;4.75;;;3.58;;
52041;SDS011;38052;45.944;13.624;2023-05-07T02:10:44;6.95;;;4.13;;
52041;SDS011;38052;45.944;13.624;2023-05-07T02:13:10;6.15;;;4.72;;
52041;SDS011;38052;45.944;13.624;2023-05-07T02:15:37;11.18;;;4.13;;
52041;SDS011;38052;45.944;13.624;2023-05-07T02:18:04;7.43;;;3.80;;
52041;SDS011;38052;45.944;13.624;2023-05-07T02:20:31;4.13;;;3.70;;
52041;SDS011;38052;45.944;13.624;2023-05-07T03:34:03;5.32;;;2.55;;
52041;SDS011;38052;45.944;13.624;2023-05-07T03:36:30;8.98;;;3.20;;
52041;SDS011;38052;45.944;13.624;2023-05-07T03:38:56;6.78;;;2.47;;
52041;SDS011;38052;45.944;13.624;2023-05-07T03:41:22;4.45;;;3.42;;
52041;SDS011;38052;45.944;13.624;2023-05-07T03:43:49;5.00;;;3.10;;
52041;SDS011;38052;45.944;13.624;2023-05-07T03:46:16;6.47;;;3.47;;
52041;SDS011;38052;45.944;13.624;2023-05-07T03:48:43;6.80;;;3.33;;
52041;SDS011;38052;45.944;13.624;2023-05-07T03:51:09;4.28;;;2.55;;
52041;SDS011;38052;45.944;13.624;2023-05-07T03:53:36;4.63;;;2.92;;
52041;SDS011;38052;45.944;13.624;2023-05-07T03:56:02;4.15;;;2.60;;
52041;SDS011;38052;45.944;13.624;2023-05-07T03:58:28;4.13;;;2.60;;
52041;SDS011;38052;45.944;13.624;2023-05-07T04:00:54;3.22;;;2.80;;
52041;SDS011;38052;45.944;13.624;2023-05-07T04:03:21;7.15;;;2.90;;
52041;SDS011;38052;45.944;13.624;2023-05-07T04:05:48;4.72;;;3.05;;
52041;SDS011;38052;45.944;13.624;2023-05-07T04:08:14;4.32;;;2.88;;
52041;SDS011;38052;45.944;13.624;2023-05-07T04:10:40;3.78;;;2.38;;
52041;SDS011;38052;45.944;13.624;2023-05-07T04:13:07;6.25;;;3.40;;
52041;SDS011;38052;45.944;13.624;2023-05-07T04:15:33;3.17;;;2.78;;
52041;SDS011;38052;45.944;13.624;2023-05-07T04:17:59;3.60;;;2.80;;
52041;SDS011;38052;45.944;13.624;2023-05-07T04:20:26;3.33;;;2.50;;
52041;SDS011;38052;45.944;13.624;2023-05-07T04:22:53;4.55;;;2.35;;
52041;SDS011;38052;45.944;13.624;2023-05-07T04:25:19;4.45;;;2.95;;
52041;SDS011;38052;45.944;13.624;2023-05-07T04:27:46;5.88;;;2.80;;
52041;SDS011;38052;45.944;13.624;2023-05-07T04:30:13;4.22;;;2.83;;
52041;SDS011;38052;45.944;13.624;2023-05-07T04:32:41;6.30;;;3.30;;
52041;SDS011;38052;45.944;13.624;2023-05-07T04:35:09;6.00;;;2.80;;
52041;SDS011;38052;45.944;13.624;2023-05-07T04:37:35;3.25;;;2.72;;
52041;SDS011;38052;45.944;13.624;2023-05-07T04:40:02;4.78;;;2.63;;
52041;SDS011;38052;45.944;13.624;2023-05-07T04:42:28;5.35;;;2.67;;
52041;SDS011;38052;45.944;13.624;2023-05-07T04:44:55;3.17;;;2.67;;
52041;SDS011;38052;45.944;13.624;2023-05-07T04:47:21;4.47;;;2.53;;
52041;SDS011;38052;45.944;13.624;2023-05-07T04:49:48;5.53;;;3.25;;
52041;SDS011;38052;45.944;13.624;2023-05-07T04:52:14;4.05;;;2.53;;
52041;SDS011;38052;45.944;13.624;2023-05-07T04:54:40;3.42;;;2.47;;
52041;SDS011;38052;45.944;13.624;2023-05-07T04:57:07;3.20;;;2.25;;
52041;SDS011;38052;45.944;13.624;2023-05-07T04:59:33;4.70;;;3.20;;
52041;SDS011;38052;45.944;13.624;2023-05-07T05:02:00;5.93;;;2.90;;
52041;SDS011;38052;45.944;13.624;2023-05-07T05:04:26;8.25;;;3.72;;
52041;SDS011;38052;45.944;13.624;2023-05-07T05:06:53;7.85;;;2.88;;
52041;SDS011;38052;45.944;13.624;2023-05-07T05:09:19;4.03;;;2.70;;
52041;SDS011;38052;45.944;13.624;2023-05-07T05:11:46;3.05;;;2.53;;
52041;SDS011;38052;45.944;13.624;2023-05-07T05:14:12;3.13;;;2.50;;
52041;SDS011;38052;45.944;13.624;2023-05-07T05:16:39;3.60;;;2.70;;
52041;SDS011;38052;45.944;13.624;2023-05-07T05:19:05;2.92;;;2.17;;
52041;SDS011;38052;45.944;13.624;2023-05-07T05:21:32;4.28;;;2.92;;
52041;SDS011;38052;45.944;13.624;2023-05-07T05:23:58;4.00;;;2.72;;
52041;SDS011;38052;45.944;13.624;2023-05-07T05:26:24;3.90;;;2.65;;
52041;SDS011;38052;45.944;13.624;2023-05-07T05:28:51;4.72;;;2.65;;
52041;SDS011;38052;45.944;13.624;2023-05-07T05:31:18;4.65;;;2.58;;
52041;SDS011;38052;45.944;13.624;2023-05-07T05:33:44;4.93;;;2.78;;
52041;SDS011;38052;45.944;13.624;2023-05-07T05:36:11;3.08;;;2.08;;
52041;SDS011;38052;45.944;13.624;2023-05-07T05:38:38;3.70;;;2.35;;
52041;SDS011;38052;45.944;13.624;2023-05-07T05:41:04;3.20;;;2.30;;
52041;SDS011;38052;45.944;13.624;2023-05-07T05:43:31;3.42;;;2.75;;
52041;SDS011;38052;45.944;13.624;2023-05-07T05:45:57;5.60;;;2.35;;
52041;SDS011;38052;45.944;13.624;2023-05-07T05:48:24;2.33;;;1.95;;
52041;SDS011;38052;45.944;13.624;2023-05-07T05:50:50;3.85;;;2.03;;
52041;SDS011;38052;45.944;13.624;2023-05-07T05:53:17;3.25;;;2.13;;
52041;SDS011;38052;45.944;13.624;2023-05-07T05:55:43;5.78;;;2.33;;
52041;SDS011;38052;45.944;13.624;2023-05-07T05:58:10;3.00;;;1.77;;
52041;SDS011;38052;45.944;13.624;2023-05-07T06:00:37;5.70;;;2.33;;
52041;SDS011;38052;45.944;13.624;2023-05-07T06:03:03;2.75;;;2.25;;
52041;SDS011;38052;45.944;13.624;2023-05-07T06:05:29;3.63;;;2.28;;
52041;SDS011;38052;45.944;13.624;2023-05-07T06:07:56;3.25;;;1.92;;
52041;SDS011;38052;45.944;13.624;2023-05-07T06:10:23;4.07;;;2.20;;
52041;SDS011;38052;45.944;13.624;2023-05-07T06:12:49;2.20;;;1.63;;
52041;SDS011;38052;45.944;13.624;2023-05-07T06:15:15;4.88;;;2.63;;
52041;SDS011;38052;45.944;13.624;2023-05-07T06:17:42;5.10;;;2.20;;
52041;SDS011;38052;45.944;13.624;2023-05-07T06:20:09;8.25;;;2.50;;
52041;SDS011;38052;45.944;13.624;2023-05-07T06:22:35;3.65;;;2.30;;
52041;SDS011;38052;45.944;13.624;2023-05-07T06:25:01;2.55;;;1.77;;
52041;SDS011;38052;45.944;13.624;2023-05-07T06:27:29;3.95;;;2.55;;
52041;SDS011;38052;45.944;13.624;2023-05-07T06:29:55;3.83;;;1.77;;
52041;SDS011;38052;45.944;13.624;2023-05-07T06:32:22;3.47;;;1.85;;
52041;SDS011;38052;45.944;13.624;2023-05-07T06:34:48;4.63;;;2.22;;
52041;SDS011;38052;45.944;13.624;2023-05-07T06:37:14;3.05;;;1.98;;
52041;SDS011;38052;45.944;13.624;2023-05-07T06:39:40;3.55;;;2.63;;
52041;SDS011;38052;45.944;13.624;2023-05-07T06:42:06;3.65;;;1.60;;
52041;SDS011;38052;45.944;13.624;2023-05-07T06:44:32;5.50;;;2.08;;
52041;SDS011;38052;45.944;13.624;2023-05-07T06:46:59;4.05;;;2.47;;
52041;SDS011;38052;45.944;13.624;2023-05-07T06:49:25;9.48;;;2.80;;
52041;SDS011;38052;45.944;13.624;2023-05-07T06:51:52;2.92;;;1.92;;
52041;SDS011;38052;45.944;13.624;2023-05-07T06:54:20;4.22;;;2.58;;
52041;SDS011;38052;45.944;13.624;2023-05-07T06:56:46;3.83;;;2.08;;
52041;SDS011;38052;45.944;13.624;2023-05-07T06:59:13;4.55;;;2.20;;
52041;SDS011;38052;45.944;13.624;2023-05-07T07:01:40;2.80;;;2.22;;
52041;SDS011;38052;45.944;13.624;2023-05-07T07:04:06;3.42;;;2.13;;
52041;SDS011;38052;45.944;13.624;2023-05-07T07:06:32;3.47;;;2.47;;
52041;SDS011;38052;45.944;13.624;2023-05-07T07:08:59;4.32;;;2.60;;
52041;SDS011;38052;45.944;13.624;2023-05-07T07:11:26;4.55;;;2.08;;
52041;SDS011;38052;45.944;13.624;2023-05-07T07:13:52;4.55;;;2.20;;
52041;SDS011;38052;45.944;13.624;2023-05-07T07:16:20;3.70;;;2.10;;
52041;SDS011;38052;45.944;13.624;2023-05-07T07:18:46;2.83;;;2.00;;
52041;SDS011;38052;45.944;13.624;2023-05-07T07:21:12;8.70;;;1.95;;
52041;SDS011;38052;45.944;13.624;2023-05-07T07:23:39;6.20;;;2.80;;
52041;SDS011;38052;45.944;13.624;2023-05-07T07:26:06;2.22;;;2.03;;
52041;SDS011;38052;45.944;13.624;2023-05-07T07:28:33;4.22;;;2.25;;
52041;SDS011;38052;45.944;13.624;2023-05-07T07:30:59;3.63;;;1.52;;
52041;SDS011;38052;45.944;13.624;2023-05-07T07:33:26;2.90;;;2.08;;
52041;SDS011;38052;45.944;13.624;2023-05-07T07:35:52;5.10;;;1.98;;
52041;SDS011;38052;45.944;13.624;2023-05-07T07:38:19;7.22;;;2.00;;
52041;SDS011;38052;45.944;13.624;2023-05-07T07:40:47;4.30;;;2.08;;
52041;SDS011;38052;45.944;13.624;2023-05-07T07:43:13;4.07;;;2.65;;
52041;SDS011;38052;45.944;13.624;2023-05-07T07:45:40;3.15;;;2.00;;
52041;SDS011;38052;45.944;13.624;2023-05-07T07:48:06;2.75;;;1.85;;
52041;SDS011;38052;45.944;13.624;2023-05-07T07:50:32;7.88;;;1.92;;
52041;SDS011;38052;45.944;13.624;2023-05-07T07:52:59;5.35;;;1.95;;
52041;SDS011;38052;45.944;13.624;2023-05-07T07:55:25;2.63;;;1.67;;
52041;SDS011;38052;45.944;13.624;2023-05-07T07:57:52;4.00;;;2.10;;
52041;SDS011;38052;45.944;13.624;2023-05-07T08:00:19;2.20;;;1.65;;
52041;SDS011;38052;45.944;13.624;2023-05-07T08:02:45;2.50;;;1.80;;
52041;SDS011;38052;45.944;13.624;2023-05-07T08:05:12;2.47;;;2.08;;
52041;SDS011;38052;45.944;13.624;2023-05-07T08:07:38;4.57;;;2.38;;
52041;SDS011;38052;45.944;13.624;2023-05-07T08:10:05;3.05;;;1.90;;
52041;SDS011;38052;45.944;13.624;2023-05-07T08:12:31;3.55;;;2.30;;
52041;SDS011;38052;45.944;13.624;2023-05-07T08:14:58;4.55;;;1.55;;
52041;SDS011;38052;45.944;13.624;2023-05-07T08:17:25;2.97;;;2.08;;
52041;SDS011;38052;45.944;13.624;2023-05-07T08:19:51;3.33;;;2.55;;
52041;SDS011;38052;45.944;13.624;2023-05-07T08:22:18;3.97;;;2.15;;
52041;SDS011;38052;45.944;13.624;2023-05-07T08:24:44;2.47;;;1.60;;
52041;SDS011;38052;45.944;13.624;2023-05-07T08:27:11;2.78;;;1.67;;
52041;SDS011;38052;45.944;13.624;2023-05-07T08:29:38;5.80;;;1.83;;
52041;SDS011;38052;45.944;13.624;2023-05-07T08:32:05;2.00;;;1.55;;
52041;SDS011;38052;45.944;13.624;2023-05-07T08:34:31;3.13;;;1.90;;
52041;SDS011;38052;45.944;13.624;2023-05-07T08:36:57;5.88;;;2.15;;
52041;SDS011;38052;45.944;13.624;2023-05-07T08:39:24;2.63;;;1.77;;
52041;SDS011;38052;45.944;13.624;2023-05-07T08:41:50;3.88;;;1.80;;
52041;SDS011;38052;45.944;13.624;2023-05-07T08:44:22;10.90;;;2.17;;
52041;SDS011;38052;45.944;13.624;2023-05-07T08:46:48;3.53;;;1.60;;
52041;SDS011;38052;45.944;13.624;2023-05-07T08:49:18;3.15;;;2.15;;
52041;SDS011;38052;45.944;13.624;2023-05-07T08:51:46;3.28;;;1.70;;
52041;SDS011;38052;45.944;13.624;2023-05-07T08:54:15;2.35;;;1.92;;
52041;SDS011;38052;45.944;13.624;2023-05-07T08:56:42;2.58;;;2.10;;
52041;SDS011;38052;45.944;13.624;2023-05-07T08:59:09;2.63;;;2.00;;
52041;SDS011;38052;45.944;13.624;2023-05-07T09:01:36;2.20;;;1.80;;
52041;SDS011;38052;45.944;13.624;2023-05-07T09:04:03;2.33;;;1.90;;
52041;SDS011;38052;45.944;13.624;2023-05-07T09:06:30;4.45;;;1.48;;
52041;SDS011;38052;45.944;13.624;2023-05-07T09:08:57;3.03;;;1.90;;
52041;SDS011;38052;45.944;13.624;2023-05-07T09:11:26;3.05;;;2.05;;
52041;SDS011;38052;45.944;13.624;2023-05-07T09:13:53;4.28;;;2.05;;
52041;SDS011;38052;45.944;13.624;2023-05-07T09:16:21;3.58;;;1.52;;
52041;SDS011;38052;45.944;13.624;2023-05-07T09:18:50;2.28;;;1.85;;
52041;SDS011;38052;45.944;13.624;2023-05-07T09:21:17;2.13;;;1.50;;
52041;SDS011;38052;45.944;13.624;2023-05-07T09:23:44;2.85;;;1.98;;
52041;SDS011;38052;45.944;13.624;2023-05-07T09:26:10;3.97;;;1.75;;
52041;SDS011;38052;45.944;13.624;2023-05-07T09:28:40;3.03;;;1.48;;
52041;SDS011;38052;45.944;13.624;2023-05-07T09:31:09;5.90;;;1.60;;
52041;SDS011;38052;45.944;13.624;2023-05-07T09:33:35;5.05;;;1.27;;
52041;SDS011;38052;45.944;13.624;2023-05-07T09:36:03;3.92;;;2.22;;
52041;SDS011;38052;45.944;13.624;2023-05-07T09:38:30;3.72;;;1.95;;
52041;SDS011;38052;45.944;13.624;2023-05-07T09:41:07;3.33;;;1.48;;
52041;SDS011;38052;45.944;13.624;2023-05-07T09:43:37;2.88;;;1.33;;
52041;SDS011;38052;45.944;13.624;2023-05-07T09:46:06;2.42;;;1.80;;
52041;SDS011;38052;45.944;13.624;2023-05-07T09:48:34;2.78;;;1.83;;
52041;SDS011;38052;45.944;13.624;2023-05-07T09:51:02;3.17;;;1.77;;
52041;SDS011;38052;45.944;13.624;2023-05-07T09:53:31;2.60;;;1.55;;
52041;SDS011;38052;45.944;13.624;2023-05-07T09:55:59;4.20;;;1.17;;
52041;SDS011;38052;45.944;13.624;2023-05-07T09:58:27;3.15;;;2.05;;
52041;SDS011;38052;45.944;13.624;2023-05-07T10:00:53;5.28;;;1.95;;
52041;SDS011;38052;45.944;13.624;2023-05-07T10:03:20;3.05;;;1.80;;
52041;SDS011;38052;45.944;13.624;2023-05-07T10:05:48;6.75;;;1.88;;
52041;SDS011;38052;45.944;13.624;2023-05-07T10:08:15;5.75;;;2.40;;
52041;SDS011;38052;45.944;13.624;2023-05-07T10:10:41;2.28;;;1.92;;
52041;SDS011;38052;45.944;13.624;2023-05-07T10:13:08;4.25;;;2.00;;
52041;SDS011;38052;45.944;13.624;2023-05-07T10:15:36;2.85;;;1.85;;
52041;SDS011;38052;45.944;13.624;2023-05-07T10:18:03;3.70;;;2.00;;
52041;SDS011;38052;45.944;13.624;2023-05-07T10:20:29;4.38;;;2.33;;
52041;SDS011;38052;45.944;13.624;2023-05-07T10:22:57;3.55;;;1.52;;
52041;SDS011;38052;45.944;13.624;2023-05-07T10:25:28;4.22;;;1.13;;
52041;SDS011;38052;45.944;13.624;2023-05-07T10:27:55;1.83;;;1.30;;
52041;SDS011;38052;45.944;13.624;2023-05-07T10:30:27;2.30;;;1.13;;
52041;SDS011;38052;45.944;13.624;2023-05-07T10:32:58;3.63;;;1.85;;
52041;SDS011;38052;45.944;13.624;2023-05-07T10:35:30;3.65;;;1.60;;
52041;SDS011;38052;45.944;13.624;2023-05-07T10:37:57;1.35;;;1.05;;
52041;SDS011;38052;45.944;13.624;2023-05-07T10:40:24;1.35;;;0.75;;
52041;SDS011;38052;45.944;13.624;2023-05-07T10:42:54;1.58;;;1.10;;
52041;SDS011;38052;45.944;13.624;2023-05-07T10:48:06;2.15;;;1.02;;
52041;SDS011;38052;45.944;13.624;2023-05-07T10:50:33;1.50;;;0.80;;
52041;SDS011;38052;45.944;13.624;2023-05-07T10:55:48;3.38;;;1.00;;
52041;SDS011;38052;45.944;13.624;2023-05-07T11:00:48;4.30;;;0.68;;
52041;SDS011;38052;45.944;13.624;2023-05-07T11:03:14;2.17;;;0.70;;
52041;SDS011;38052;45.944;13.624;2023-05-07T11:05:41;3.15;;;1.20;;
52041;SDS011;38052;45.944;13.624;2023-05-07T11:08:08;1.60;;;0.68;;
52041;SDS011;38052;45.944;13.624;2023-05-07T11:10:51;2.78;;;0.90;;
52041;SDS011;38052;45.944;13.624;2023-05-07T11:13:18;1.38;;;0.75;;
52041;SDS011;38052;45.944;13.624;2023-05-07T11:15:45;3.95;;;0.90;;
52041;SDS011;38052;45.944;13.624;2023-05-07T11:18:15;3.38;;;1.05;;
52041;SDS011;38052;45.944;13.624;2023-05-07T11:20:45;3.80;;;1.02;;
52041;SDS011;38052;45.944;13.624;2023-05-07T11:25:38;2.67;;;1.05;;
52041;SDS011;38052;45.944;13.624;2023-05-07T11:28:06;2.22;;;1.38;;
52041;SDS011;38052;45.944;13.624;2023-05-07T11:33:01;2.40;;;0.77;;
52041;SDS011;38052;45.944;13.624;2023-05-07T11:35:28;1.77;;;0.88;;
52041;SDS011;38052;45.944;13.624;2023-05-07T11:37:59;1.20;;;0.80;;
52041;SDS011;38052;45.944;13.624;2023-05-07T11:40:26;1.80;;;1.20;;
52041;SDS011;38052;45.944;13.624;2023-05-07T11:42:53;2.67;;;0.90;;
52041;SDS011;38052;45.944;13.624;2023-05-07T11:45:23;1.67;;;0.80;;
52041;SDS011;38052;45.944;13.624;2023-05-07T11:47:50;2.78;;;0.95;;
52041;SDS011;38052;45.944;13.624;2023-05-07T11:50:17;2.58;;;1.02;;
52041;SDS011;38052;45.944;13.624;2023-05-07T11:52:50;3.10;;;0.80;;
52041;SDS011;38052;45.944;13.624;2023-05-07T11:55:18;3.85;;;0.80;;
52041;SDS011;38052;45.944;13.624;2023-05-07T11:57:44;3.47;;;0.93;;
52041;SDS011;38052;45.944;13.624;2023-05-07T12:00:11;2.67;;;1.10;;
52041;SDS011;38052;45.944;13.624;2023-05-07T12:02:38;1.75;;;0.82;;
52041;SDS011;38052;45.944;13.624;2023-05-07T12:05:04;8.32;;;0.77;;
52041;SDS011;38052;45.944;13.624;2023-05-07T12:07:32;2.08;;;0.95;;
52041;SDS011;38052;45.944;13.624;2023-05-07T12:09:59;1.33;;;0.85;;
52041;SDS011;38052;45.944;13.624;2023-05-07T12:12:30;3.58;;;1.05;;
52041;SDS011;38052;45.944;13.624;2023-05-07T12:14:57;4.25;;;0.90;;
52041;SDS011;38052;45.944;13.624;2023-05-07T12:17:23;2.38;;;0.93;;
52041;SDS011;38052;45.944;13.624;2023-05-07T12:19:49;1.00;;;0.60;;
52041;SDS011;38052;45.944;13.624;2023-05-07T12:22:17;4.05;;;1.30;;
52041;SDS011;38052;45.944;13.624;2023-05-07T12:24:56;3.17;;;0.93;;
52041;SDS011;38052;45.944;13.624;2023-05-07T12:27:23;1.00;;;0.50;;
52041;SDS011;38052;45.944;13.624;2023-05-07T12:29:49;2.38;;;0.77;;
52041;SDS011;38052;45.944;13.624;2023-05-07T12:32:17;1.60;;;0.90;;
52041;SDS011;38052;45.944;13.624;2023-05-07T12:34:44;2.10;;;0.70;;
52041;SDS011;38052;45.944;13.624;2023-05-07T12:37:11;3.45;;;1.58;;
52041;SDS011;38052;45.944;13.624;2023-05-07T12:39:49;2.55;;;0.88;;
52041;SDS011;38052;45.944;13.624;2023-05-07T12:42:16;2.20;;;1.63;;
52041;SDS011;38052;45.944;13.624;2023-05-07T12:44:43;1.45;;;1.00;;
52041;SDS011;38052;45.944;13.624;2023-05-07T12:47:11;3.10;;;1.67;;
52041;SDS011;38052;45.944;13.624;2023-05-07T12:49:37;2.15;;;1.25;;
52041;SDS011;38052;45.944;13.624;2023-05-07T12:52:05;3.80;;;1.20;;
52041;SDS011;38052;45.944;13.624;2023-05-07T12:54:35;2.03;;;1.30;;
52041;SDS011;38052;45.944;13.624;2023-05-07T12:57:03;2.20;;;1.50;;
52041;SDS011;38052;45.944;13.624;2023-05-07T12:59:31;4.53;;;1.25;;
52041;SDS011;38052;45.944;13.624;2023-05-07T13:01:58;10.13;;;1.50;;
52041;SDS011;38052;45.944;13.624;2023-05-07T13:04:24;3.75;;;1.38;;
52041;SDS011;38052;45.944;13.624;2023-05-07T13:06:51;3.60;;;1.50;;
52041;SDS011;38052;45.944;13.624;2023-05-07T13:09:17;2.47;;;1.10;;
52041;SDS011;38052;45.944;13.624;2023-05-07T13:11:44;2.53;;;1.20;;
52041;SDS011;38052;45.944;13.624;2023-05-07T13:14:10;2.60;;;1.40;;
52041;SDS011;38052;45.944;13.624;2023-05-07T13:16:36;2.58;;;1.50;;
52041;SDS011;38052;45.944;13.624;2023-05-07T13:19:03;2.80;;;1.65;;
52041;SDS011;38052;45.944;13.624;2023-05-07T13:21:29;3.45;;;1.35;;
52041;SDS011;38052;45.944;13.624;2023-05-07T13:23:59;5.68;;;1.42;;
52041;SDS011;38052;45.944;13.624;2023-05-07T13:26:25;5.85;;;1.48;;
52041;SDS011;38052;45.944;13.624;2023-05-07T13:28:53;4.10;;;1.45;;
52041;SDS011;38052;45.944;13.624;2023-05-07T13:31:19;1.52;;;1.10;;
52041;SDS011;38052;45.944;13.624;2023-05-07T13:33:46;1.83;;;1.40;;
52041;SDS011;38052;45.944;13.624;2023-05-07T13:36:12;2.15;;;1.38;;
52041;SDS011;38052;45.944;13.624;2023-05-07T13:38:41;3.65;;;1.38;;
52041;SDS011;38052;45.944;13.624;2023-05-07T13:41:07;4.72;;;1.65;;
52041;SDS011;38052;45.944;13.624;2023-05-07T13:43:34;2.10;;;1.38;;
52041;SDS011;38052;45.944;13.624;2023-05-07T13:46:01;7.93;;;2.70;;
52041;SDS011;38052;45.944;13.624;2023-05-07T13:48:28;2.20;;;1.95;;
52041;SDS011;38052;45.944;13.624;2023-05-07T13:50:54;6.55;;;2.72;;
52041;SDS011;38052;45.944;13.624;2023-05-07T13:53:21;4.53;;;1.98;;
52041;SDS011;38052;45.944;13.624;2023-05-07T13:55:47;2.85;;;2.10;;
52041;SDS011;38052;45.944;13.624;2023-05-07T13:58:13;5.10;;;2.78;;
52041;SDS011;38052;45.944;13.624;2023-05-07T14:00:40;3.78;;;2.53;;
52041;SDS011;38052;45.944;13.624;2023-05-07T14:03:06;4.28;;;2.75;;
52041;SDS011;38052;45.944;13.624;2023-05-07T14:05:33;4.07;;;3.00;;
52041;SDS011;38052;45.944;13.624;2023-05-07T14:08:00;4.15;;;2.78;;
52041;SDS011;38052;45.944;13.624;2023-05-07T14:10:26;5.20;;;2.80;;
52041;SDS011;38052;45.944;13.624;2023-05-07T14:12:52;4.18;;;2.88;;
52041;SDS011;38052;45.944;13.624;2023-05-07T14:15:19;3.42;;;2.60;;
52041;SDS011;38052;45.944;13.624;2023-05-07T14:17:46;3.03;;;2.67;;
52041;SDS011;38052;45.944;13.624;2023-05-07T14:20:12;3.58;;;2.42;;
52041;SDS011;38052;45.944;13.624;2023-05-07T14:22:39;3.92;;;2.30;;
52041;SDS011;38052;45.944;13.624;2023-05-07T14:25:06;3.58;;;3.15;;
52041;SDS011;38052;45.944;13.624;2023-05-07T14:27:32;3.58;;;2.70;;
52041;SDS011;38052;45.944;13.624;2023-05-07T14:29:59;5.18;;;2.58;;
52041;SDS011;38052;45.944;13.624;2023-05-07T14:32:25;4.47;;;2.53;;
52041;SDS011;38052;45.944;13.624;2023-05-07T14:34:52;5.05;;;2.45;;
52041;SDS011;38052;45.944;13.624;2023-05-07T14:37:18;3.97;;;1.70;;
52041;SDS011;38052;45.944;13.624;2023-05-07T14:39:44;2.42;;;1.80;;
52041;SDS011;38052;45.944;13.624;2023-05-07T14:42:11;4.63;;;2.15;;
52041;SDS011;38052;45.944;13.624;2023-05-07T14:44:37;3.53;;;2.00;;
52041;SDS011;38052;45.944;13.624;2023-05-07T14:47:06;2.95;;;2.00;;
52041;SDS011;38052;45.944;13.624;2023-05-07T14:49:33;3.20;;;2.08;;
52041;SDS011;38052;45.944;13.624;2023-05-07T14:51:59;2.10;;;1.65;;
52041;SDS011;38052;45.944;13.624;2023-05-07T14:54:25;5.38;;;1.75;;
52041;SDS011;38052;45.944;13.624;2023-05-07T14:56:51;2.47;;;1.83;;
52041;SDS011;38052;45.944;13.624;2023-05-07T14:59:18;4.05;;;1.45;;
52041;SDS011;38052;45.944;13.624;2023-05-07T15:01:46;2.90;;;2.03;;
52041;SDS011;38052;45.944;13.624;2023-05-07T15:04:12;3.92;;;1.70;;
52041;SDS011;38052;45.944;13.624;2023-05-07T15:06:39;3.22;;;1.80;;
52041;SDS011;38052;45.944;13.624;2023-05-07T15:09:06;4.63;;;1.83;;
52041;SDS011;38052;45.944;13.624;2023-05-07T15:11:33;2.28;;;1.50;;
52041;SDS011;38052;45.944;13.624;2023-05-07T15:13:59;3.40;;;1.88;;
52041;SDS011;38052;45.944;13.624;2023-05-07T15:16:25;2.42;;;1.70;;
52041;SDS011;38052;45.944;13.624;2023-05-07T15:18:53;3.10;;;2.05;;
52041;SDS011;38052;45.944;13.624;2023-05-07T15:21:19;2.75;;;1.45;;
52041;SDS011;38052;45.944;13.624;2023-05-07T15:23:46;2.05;;;1.70;;
52041;SDS011;38052;45.944;13.624;2023-05-07T15:26:12;3.08;;;2.03;;
52041;SDS011;38052;45.944;13.624;2023-05-07T15:28:38;2.17;;;1.40;;
52041;SDS011;38052;45.944;13.624;2023-05-07T15:31:05;3.03;;;1.70;;
52041;SDS011;38052;45.944;13.624;2023-05-07T15:33:32;4.25;;;1.80;;
52041;SDS011;38052;45.944;13.624;2023-05-07T15:35:58;3.92;;;1.85;;
52041;SDS011;38052;45.944;13.624;2023-05-07T15:38:25;2.75;;;1.85;;
52041;SDS011;38052;45.944;13.624;2023-05-07T15:40:52;4.13;;;1.95;;
52041;SDS011;38052;45.944;13.624;2023-05-07T15:43:19;4.72;;;1.80;;
52041;SDS011;38052;45.944;13.624;2023-05-07T15:45:45;5.50;;;2.30;;
52041;SDS011;38052;45.944;13.624;2023-05-07T15:48:12;3.58;;;2.20;;
52041;SDS011;38052;45.944;13.624;2023-05-07T15:50:38;2.85;;;2.08;;
52041;SDS011;38052;45.944;13.624;2023-05-07T15:53:05;3.20;;;1.88;;
52041;SDS011;38052;45.944;13.624;2023-05-07T15:55:32;3.17;;;1.70;;